Time;durP1;ratioP1;P1;durP2;ratioP2;P2;SDS_P1;SDS_P2;PMS_P1;PMS_P2;Temp;Humidity;BMP_temperature;BMP_pressure;BME280_temperature;BME280_humidity;BME280_pressure;Samples;Min_cycle;Max_cycle;Signal;HPM_P1;HPM_P2
2021/06/25 00:01:06;;;;;;;5.78;3.17;;;;;;;42.33;54.69;86222.66;1751031;82;21872;-86
2021/06/25 00:03:39;;;;;;;4.95;3.17;;;;;;;42.44;54.29;90398.75;1735193;81;21222;-85
2021/06/25 00:06:11;;;;;;;8.68;3.47;;;;;;;42.40;54.22;90566.95;1724701;82;21354;-85
2021/06/25 00:08:44;;;;;;;6.80;3.02;;;;;;;42.30;54.40;88429.55;1733681;82;21264;-85
2021/06/25 00:11:16;;;;;;;6.90;3.98;;;;;;;42.24;54.54;87239.84;1737182;82;21385;-85
2021/06/25 00:13:49;;;;;;;8.78;3.27;;;;;;;42.17;54.71;85969.20;1735194;80;21318;-85
2021/06/25 00:16:22;;;;;;;7.33;3.75;;;;;;;42.17;54.67;86492.39;1721032;83;21765;-85
2021/06/25 00:18:55;;;;;;;6.58;3.85;;;;;;;41.92;55.66;78536.81;1720908;82;21227;-85
2021/06/25 00:21:27;;;;;;;7.25;3.27;;;;;;;42.05;55.04;83966.36;1721028;83;21337;-85
2021/06/25 00:24:00;;;;;;;8.75;3.58;;;;;;;42.14;54.64;87472.28;1737163;82;21354;-85
2021/06/25 00:26:32;;;;;;;9.40;3.58;;;;;;;42.10;54.62;87676.20;1748554;81;21725;-85
2021/06/25 00:29:04;;;;;;;6.08;2.85;;;;;;;42.14;54.37;90077.77;1750778;82;21563;-84
2021/06/25 00:31:37;;;;;;;5.70;3.50;;;;;;;42.00;54.70;86738.35;1750698;81;21246;-84
2021/06/25 00:34:09;;;;;;;4.17;3.12;;;;;;;41.97;54.69;86729.71;1732495;82;21377;-85
2021/06/25 00:36:41;;;;;;;8.30;3.50;;;;;;;41.98;54.61;87710.95;1722505;82;21362;-85
2021/06/25 00:39:15;;;;;;;6.83;2.80;;;;;;;41.95;54.60;87899.81;1723055;82;21305;-85
2021/06/25 00:41:47;;;;;;;5.85;2.80;;;;;;;41.87;54.73;86689.48;1720895;82;21198;-85
2021/06/25 00:44:20;;;;;;;6.42;3.42;;;;;;;41.81;54.87;85241.06;1741071;82;21314;-85
2021/06/25 00:46:52;;;;;;;4.97;2.85;;;;;;;41.81;54.83;85994.13;1750915;80;21306;-84
2021/06/25 00:49:25;;;;;;;3.62;2.40;;;;;;;41.73;54.96;84754.98;1751266;82;21219;-83
2021/06/25 00:51:57;;;;;;;3.62;2.30;;;;;;;41.72;54.92;85256.88;1740924;82;21385;-84
2021/06/25 00:54:30;;;;;;;7.03;2.45;;;;;;;41.71;54.92;85485.67;1721973;82;21421;-84
2021/06/25 00:57:02;;;;;;;3.25;2.42;;;;;;;41.63;54.91;85709.48;1721395;83;21245;-84
2021/06/25 00:59:35;;;;;;;3.47;2.20;;;;;;;41.62;54.95;85479.27;1721404;83;21384;-84
2021/06/25 01:02:08;;;;;;;3.72;2.20;;;;;;;41.64;54.81;86714.17;1733294;82;21951;-84
2021/06/25 01:04:40;;;;;;;4.35;2.20;;;;;;;41.68;54.62;88644.43;1753903;81;21338;-84
2021/06/25 01:07:13;;;;;;;4.10;2.27;;;;;;;41.67;54.55;89344.35;1754771;82;21833;-84
2021/06/25 01:09:45;;;;;;;4.40;2.25;;;;;;;41.62;54.55;89340.48;1754117;82;21358;-84
2021/06/25 01:12:18;;;;;;;3.87;2.30;;;;;;;41.56;54.56;88870.73;1740249;80;21797;-84
2021/06/25 01:14:50;;;;;;;5.58;2.27;;;;;;;41.57;54.47;90055.17;1724276;82;21745;-84
2021/06/25 01:17:38;;;;;;;3.52;2.20;;;;;;;41.57;54.35;91108.98;1724034;83;21679;-84
2021/06/25 01:20:25;;;;;;;2.42;1.90;;;;;;;41.50;54.44;90139.13;1724458;83;21701;-84
2021/06/25 01:22:58;;;;;;;4.83;2.02;;;;;;;41.46;54.40;90509.59;1741254;82;21330;-85
2021/06/25 01:25:34;;;;;;;3.27;2.10;;;;;;;41.44;54.36;90880.20;1739658;82;21376;-84
2021/06/25 01:28:11;;;;;;;3.72;2.00;;;;;;;41.39;54.42;90642.18;1754218;82;21326;-84
2021/06/25 01:30:45;;;;;;;2.20;2.00;;;;;;;41.33;54.47;90033.45;1754279;80;21856;-84
2021/06/25 01:33:19;;;;;;;3.15;1.95;;;;;;;41.34;54.35;91365.44;1730439;82;21218;-84
2021/06/25 01:35:54;;;;;;;3.47;2.05;;;;;;;41.35;54.20;93045.25;1742342;82;21203;-84
2021/06/25 01:38:26;;;;;;;3.50;2.10;;;;;;;41.30;54.29;92503.98;1754246;80;21429;-84
2021/06/25 01:41:00;;;;;;;3.22;2.08;;;;;;;41.28;54.24;92916.19;1754286;81;21832;-84
2021/06/25 01:43:33;;;;;;;3.10;1.80;;;;;;;41.25;54.22;92926.65;1720183;83;21192;-85
2021/06/25 01:46:11;;;;;;;6.17;2.40;;;;;;;41.20;54.22;92921.77;1748493;82;21369;-85
2021/06/25 01:48:44;;;;;;;4.10;2.25;;;;;;;41.20;54.13;93949.28;1754195;80;21601;-85
2021/06/25 01:51:18;;;;;;;2.85;1.80;;;;;;;41.22;53.99;95402.27;1736139;82;21222;-85
2021/06/25 01:53:50;;;;;;;2.55;2.10;;;;;;;41.18;54.00;95197.55;1730465;82;21761;-84
2021/06/25 01:56:23;;;;;;;1.95;1.80;;;;;;;41.17;53.92;95981.23;1754235;82;21789;-84
2021/06/25 01:58:56;;;;;;;6.35;2.33;;;;;;;41.14;53.94;95848.08;1754190;81;21377;-84
2021/06/25 02:01:29;;;;;;;4.33;2.25;;;;;;;41.14;53.79;97624.85;1734049;82;21250;-85
2021/06/25 02:04:01;;;;;;;4.42;2.20;;;;;;;41.04;54.02;94937.55;1724846;81;21203;-84
2021/06/25 02:06:33;;;;;;;4.03;2.10;;;;;;;40.99;54.08;94413.27;1744346;80;21704;-82
2021/06/25 02:09:06;;;;;;;6.33;2.45;;;;;;;40.96;54.06;94743.02;1753536;80;21306;-83
2021/06/25 02:11:38;;;;;;;5.60;2.62;;;;;;;40.91;54.25;92879.61;1736706;80;21796;-84
2021/06/25 02:14:10;;;;;;;5.37;2.12;;;;;;;40.87;54.24;93116.72;1724157;83;21242;-84
2021/06/25 02:16:43;;;;;;;3.30;2.12;;;;;;;40.88;54.16;94408.09;1744488;82;21325;-84
2021/06/25 02:19:16;;;;;;;2.80;2.15;;;;;;;40.83;54.23;93393.89;1748224;82;21369;-84
2021/06/25 02:21:48;;;;;;;4.65;2.90;;;;;;;40.76;54.36;91965.06;1733009;82;21215;-84
2021/06/25 02:24:21;;;;;;;2.70;2.08;;;;;;;40.77;54.38;92349.33;1743139;82;21274;-84
2021/06/25 02:26:53;;;;;;;4.67;2.72;;;;;;;40.85;54.11;95263.33;1724153;82;21232;-84
2021/06/25 02:29:25;;;;;;;2.83;2.50;;;;;;;40.82;54.08;95017.17;1733503;82;21191;-84
2021/06/25 02:31:59;;;;;;;3.60;2.50;;;;;;;40.79;54.16;94713.98;1751929;82;21345;-85
2021/06/25 02:34:31;;;;;;;4.53;2.80;;;;;;;40.76;54.22;94019.25;1753919;82;21306;-84
2021/06/25 02:37:04;;;;;;;6.47;2.72;;;;;;;40.76;54.19;94297.61;1754150;81;21271;-85
2021/06/25 02:39:37;;;;;;;5.55;3.12;;;;;;;40.76;54.16;95098.67;1753248;80;21270;-84
2021/06/25 02:42:10;;;;;;;4.90;2.75;;;;;;;40.74;54.22;94396.06;1741828;82;21310;-84
2021/06/25 02:44:42;;;;;;;11.70;2.77;;;;;;;40.75;54.20;94643.89;1748385;80;21310;-84
2021/06/25 02:47:14;;;;;;;7.42;2.60;;;;;;;40.75;54.19;95003.25;1736454;82;21263;-84
2021/06/25 02:49:47;;;;;;;7.15;3.08;;;;;;;40.74;54.15;95218.67;1737211;80;21266;-84
2021/06/25 02:52:19;;;;;;;3.95;2.85;;;;;;;40.71;54.22;94709.13;1739578;82;21242;-84
2021/06/25 02:54:52;;;;;;;5.75;2.42;;;;;;;40.61;54.52;91401.48;1754207;80;21908;-84
2021/06/25 02:57:24;;;;;;;5.90;2.87;;;;;;;40.56;54.68;90238.08;1729522;82;21212;-84
2021/06/25 02:59:57;;;;;;;3.98;2.37;;;;;;;40.59;54.68;90717.20;1745439;81;21279;-82
2021/06/25 03:02:29;;;;;;;8.55;2.77;;;;;;;40.57;54.79;89755.05;1747486;82;21365;-82
2021/06/25 03:05:01;;;;;;;4.72;3.20;;;;;;;40.56;54.82;89540.61;1752373;82;21298;-83
2021/06/25 03:07:34;;;;;;;4.25;2.70;;;;;;;40.57;54.83;89576.41;1759274;80;21354;-83
2021/06/25 03:10:08;;;;;;;8.08;3.05;;;;;;;40.56;54.89;89068.31;1741505;82;21311;-83
2021/06/25 03:12:41;;;;;;;5.30;2.62;;;;;;;40.45;55.21;85664.95;1743415;80;21263;-83
2021/06/25 03:15:13;;;;;;;5.05;2.70;;;;;;;40.59;54.92;89490.03;1730189;82;21319;-82
2021/06/25 03:17:46;;;;;;;3.42;2.70;;;;;;;40.56;55.01;88319.67;1729446;83;21327;-82
2021/06/25 03:20:19;;;;;;;7.72;2.50;;;;;;;40.57;55.02;88347.58;1747995;82;21337;-82
2021/06/25 03:22:52;;;;;;;5.62;2.98;;;;;;;40.55;55.08;87861.81;1739525;82;21233;-83
2021/06/25 03:25:24;;;;;;;5.83;2.90;;;;;;;40.57;55.12;87829.75;1749782;82;21309;-85
2021/06/25 03:27:57;;;;;;;3.72;2.62;;;;;;;40.50;55.43;84949.94;1754305;82;21373;-85
2021/06/25 03:30:29;;;;;;;4.97;3.12;;;;;;;40.47;55.60;83919.84;1721913;82;21353;-84
2021/06/25 03:33:02;;;;;;;6.78;3.30;;;;;;;40.48;55.59;83955.48;1731470;82;21218;-84
2021/06/25 03:35:35;;;;;;;4.55;3.20;;;;;;;40.48;55.62;83916.97;1744961;82;21328;-84
2021/06/25 03:38:07;;;;;;;5.12;3.05;;;;;;;40.36;55.92;80634.77;1727788;82;21214;-84
2021/06/25 03:40:40;;;;;;;6.30;3.30;;;;;;;40.42;55.89;81895.72;1746884;82;21346;-83
2021/06/25 03:43:12;;;;;;;6.58;3.25;;;;;;;40.41;56.02;81128.90;1752872;82;21393;-85
2021/06/25 03:45:45;;;;;;;5.53;3.17;;;;;;;40.42;56.09;80853.77;1753616;80;21375;-85
2021/06/25 03:48:18;;;;;;;4.37;3.10;;;;;;;40.42;56.08;80859.47;1754356;81;21297;-86
2021/06/25 03:50:51;;;;;;;4.45;3.40;;;;;;;40.44;56.16;80338.50;1754983;80;21258;-84
2021/06/25 03:53:23;;;;;;;5.20;3.40;;;;;;;40.41;56.28;79510.19;1753923;81;21361;-86
2021/06/25 03:56:11;;;;;;;6.95;3.40;;;;;;;40.44;56.28;79819.07;1754145;80;21427;-87
2021/06/25 03:58:47;;;;;;;4.37;3.17;;;;;;;40.46;56.26;80293.40;1753370;80;21186;-87
2021/06/25 04:01:22;;;;;;;4.75;3.27;;;;;;;40.46;56.39;79001.89;1752509;80;21416;-84
2021/06/25 04:03:55;;;;;;;8.23;4.10;;;;;;;40.40;56.63;77137.77;1726790;82;21686;-83
2021/06/25 04:06:29;;;;;;;5.70;3.42;;;;;;;40.36;56.85;75430.55;1704445;81;21241;-83
2021/06/25 04:09:01;;;;;;;6.45;3.72;;;;;;;40.29;57.35;72007.63;1749572;80;21449;-84
2021/06/25 04:11:34;;;;;;;8.80;4.17;;;;;;;40.32;57.30;72651.72;1750044;81;21865;-84
2021/06/25 04:14:07;;;;;;;5.05;3.05;;;;;;;40.31;57.49;71478.55;1749918;82;21731;-81
2021/06/25 04:16:40;;;;;;;9.08;3.30;;;;;;;40.33;57.56;71152.11;1750058;80;21241;-82
2021/06/25 04:19:14;;;;;;;5.40;3.47;;;;;;;40.37;57.57;71461.63;1748812;81;21880;-81
2021/06/25 04:21:46;;;;;;;6.28;3.33;;;;;;;40.35;57.58;71176.44;1748805;80;21322;-85
2021/06/25 04:24:19;;;;;;;10.20;3.72;;;;;;;40.34;57.73;70504.60;1748338;80;21342;-84
2021/06/25 04:26:52;;;;;;;4.08;3.22;;;;;;;40.41;57.56;72229.70;1749175;80;21706;-83
2021/06/25 04:29:24;;;;;;;5.85;3.75;;;;;;;40.46;57.48;72873.55;1734561;82;21867;-81
2021/06/25 04:31:56;;;;;;;7.55;3.80;;;;;;;40.46;57.50;72626.14;1749742;80;21292;-82
2021/06/25 04:34:29;;;;;;;8.08;3.87;;;;;;;40.43;57.64;71931.59;1748310;82;21334;-84
2021/06/25 04:37:01;;;;;;;8.43;3.55;;;;;;;40.45;57.58;72248.78;1749214;80;21235;-82
2021/06/25 04:39:34;;;;;;;6.50;3.87;;;;;;;40.50;57.55;72921.73;1747902;82;21235;-83
2021/06/25 04:42:07;;;;;;;5.10;3.22;;;;;;;40.57;57.35;74547.13;1749583;80;21424;-83
2021/06/25 04:44:40;;;;;;;6.42;3.35;;;;;;;40.58;57.34;74345.52;1719709;82;22024;-83
2021/06/25 04:47:12;;;;;;;6.17;4.03;;;;;;;40.64;57.12;76231.19;1749781;80;21184;-84
2021/06/25 04:49:46;;;;;;;6.08;3.40;;;;;;;40.65;57.10;76243.86;1747307;82;21623;-83
2021/06/25 04:52:18;;;;;;;6.22;3.75;;;;;;;40.66;57.03;76545.58;1748625;80;21219;-83
2021/06/25 04:54:51;;;;;;;7.47;3.83;;;;;;;40.72;56.79;78660.74;1750281;80;21400;-85
2021/06/25 04:57:23;;;;;;;11.83;4.80;;;;;;;40.74;56.80;78386.28;1716735;82;21781;-81
2021/06/25 04:59:56;;;;;;;6.90;3.35;;;;;;;40.76;56.74;79174.14;1726266;82;21380;-82
2021/06/25 05:02:28;;;;;;;7.00;3.55;;;;;;;40.77;56.69;79223.92;1724129;82;21408;-82
2021/06/25 05:05:01;;;;;;;4.53;3.02;;;;;;;40.82;56.45;81275.84;1749689;82;21742;-82
2021/06/25 05:07:34;;;;;;;5.10;3.80;;;;;;;40.85;56.27;82571.71;1728816;81;21159;-85
2021/06/25 05:10:07;;;;;;;6.72;4.00;;;;;;;40.86;56.21;83057.52;1734742;81;21237;-81
2021/06/25 05:12:40;;;;;;;4.55;3.12;;;;;;;40.84;56.15;83317.34;1752342;81;21206;-82
2021/06/25 05:15:14;;;;;;;6.67;4.12;;;;;;;40.92;55.89;85361.59;1762626;80;21325;-83
2021/06/25 05:17:47;;;;;;;5.70;3.05;;;;;;;40.98;55.65;87513.25;1761526;80;21409;-84
2021/06/25 05:20:21;;;;;;;4.55;3.37;;;;;;;40.94;55.71;86587.92;1750759;80;21259;-82
2021/06/25 05:22:55;;;;;;;6.60;3.65;;;;;;;40.92;55.75;86065.74;1747598;81;21811;-83
2021/06/25 05:25:27;;;;;;;6.70;3.08;;;;;;;40.94;55.67;86599.34;1748090;81;21258;-82
2021/06/25 05:27:59;;;;;;;6.53;3.52;;;;;;;40.99;55.56;87784.16;1734096;81;21856;-81
2021/06/25 05:30:32;;;;;;;7.42;3.70;;;;;;;41.03;55.42;88739.27;1751969;81;21195;-80
2021/06/25 05:33:06;;;;;;;7.05;3.70;;;;;;;41.07;55.39;88948.95;1739283;81;21215;-80
2021/06/25 05:35:38;;;;;;;8.80;3.67;;;;;;;41.12;55.25;90171.50;1717905;82;21348;-80
2021/06/25 05:38:14;;;;;;;8.05;3.85;;;;;;;41.08;55.42;88250.53;1718241;83;21253;-80
2021/06/25 05:40:47;;;;;;;6.92;3.35;;;;;;;41.11;55.47;87994.73;1718140;83;21340;-79
2021/06/25 05:43:19;;;;;;;5.42;3.80;;;;;;;41.14;55.40;88485.98;1718280;83;21262;-79
2021/06/25 05:45:52;;;;;;;8.80;3.08;;;;;;;41.22;55.07;91745.75;1718416;83;21197;-81
2021/06/25 05:48:24;;;;;;;6.55;3.27;;;;;;;41.29;54.70;95111.80;1718278;83;21363;-80
2021/06/25 05:50:57;;;;;;;6.95;3.42;;;;;;;41.35;54.25;99531.18;1718442;83;21690;-80
2021/06/25 05:53:30;;;;;;;9.70;4.40;;;;;;;41.46;53.56;106063.52;1714362;83;21217;-80
2021/06/25 05:56:04;;;;;;;8.48;3.15;;;;;;;41.58;53.02;110965.13;1720751;83;21697;-80
2021/06/25 05:58:36;;;;;;;5.47;3.62;;;;;;;41.63;52.56;114872.67;1673184;83;21225;-80
2021/06/25 06:01:09;;;;;;;5.75;3.00;;;;;;;41.66;52.51;114699.08;1720564;83;21427;-80
2021/06/25 06:03:41;;;;;;;4.87;3.37;;;;;;;41.68;52.42;115082.63;1703266;84;21391;-80
2021/06/25 06:06:14;;;;;;;5.55;3.20;;;;;;;41.70;52.37;115268.17;1703503;84;21241;-80
2021/06/25 06:08:46;;;;;;;6.20;3.17;;;;;;;41.76;52.22;116559.32;1726662;83;21187;-80
2021/06/25 06:11:19;;;;;;;8.18;3.67;;;;;;;41.73;52.32;115190.27;1733071;83;21773;-80
2021/06/25 06:13:52;;;;;;;8.15;3.90;;;;;;;41.71;52.45;113689.69;1732855;83;21206;-80
2021/06/25 06:16:24;;;;;;;6.00;3.25;;;;;;;41.74;52.40;114033.66;1718933;83;21191;-80
2021/06/25 06:18:57;;;;;;;6.35;3.08;;;;;;;41.80;52.30;114711.77;1703458;84;21395;-80
2021/06/25 06:31:10;;;;;;;6.90;3.17;;;;;;;41.90;52.12;116354.98;1703179;84;21339;-80
2021/06/25 06:32:44;;;;;;;7.45;3.20;;;;;;;41.98;52.08;116027.91;1703433;84;21209;-80
2021/06/25 06:35:09;;;;;;;7.33;3.40;;;;;;;42.00;52.05;116258.37;1702615;84;21241;-80
2021/06/25 06:37:48;;;;;;;5.65;3.30;;;;;;;42.07;51.92;117249.77;1720460;83;21884;-80
2021/06/25 06:40:19;;;;;;;5.25;4.03;;;;;;;42.10;51.76;118147.64;1732999;83;21222;-80
2021/06/25 06:42:52;;;;;;;4.90;3.20;;;;;;;42.17;51.58;119789.73;1732788;83;21749;-80
2021/06/25 06:45:26;;;;;;;9.43;3.40;;;;;;;42.26;51.40;121045.58;1733046;83;21250;-79
2021/06/25 06:47:58;;;;;;;6.12;3.60;;;;;;;42.28;51.34;121203.86;1732974;83;21424;-80
2021/06/25 06:50:30;;;;;;;12.45;3.47;;;;;;;42.34;51.22;122154.68;1733047;83;21235;-81
2021/06/25 06:53:04;;;;;;;8.75;3.85;;;;;;;42.35;51.20;122174.48;1732964;83;21198;-80
2021/06/25 06:55:42;;;;;;;7.55;3.70;;;;;;;42.44;50.96;124257.52;1733060;83;21277;-81
2021/06/25 06:58:12;;;;;;;4.87;3.10;;;;;;;42.53;50.79;125630.50;1723664;82;21257;-80
2021/06/25 07:00:44;;;;;;;6.47;3.45;;;;;;;42.60;50.58;127309.48;1703299;84;21415;-79
2021/06/25 07:03:18;;;;;;;3.77;2.87;;;;;;;42.64;50.56;126994.72;1701455;84;21206;-80
2021/06/25 07:05:50;;;;;;;6.40;3.60;;;;;;;42.65;50.45;127522.95;1703101;84;21371;-80
2021/06/25 07:08:23;;;;;;;6.83;3.10;;;;;;;42.69;50.38;128207.36;1703227;84;21237;-80
2021/06/25 07:10:55;;;;;;;7.33;3.27;;;;;;;42.71;50.32;128479.45;1699756;84;21265;-80
2021/06/25 07:13:28;;;;;;;5.25;3.05;;;;;;;42.68;50.34;127972.90;1695110;84;21760;-80
2021/06/25 07:16:00;;;;;;;7.70;3.15;;;;;;;42.75;50.26;128490.91;1695491;84;21827;-80
2021/06/25 07:18:34;;;;;;;5.87;2.72;;;;;;;42.79;50.18;129090.08;1695166;84;21285;-77
2021/06/25 07:21:06;;;;;;;6.78;3.00;;;;;;;42.88;50.00;130687.64;1695576;84;21324;-77
2021/06/25 07:23:39;;;;;;;7.53;3.22;;;;;;;42.90;49.84;131623.50;1695250;84;21241;-77
2021/06/25 07:26:11;;;;;;;8.43;2.83;;;;;;;42.98;49.72;132926.17;1695226;84;21206;-77
2021/06/25 07:28:44;;;;;;;8.18;2.90;;;;;;;43.03;49.55;134130.30;1718923;83;21373;-77
2021/06/25 07:31:16;;;;;;;8.23;2.95;;;;;;;43.15;49.24;136657.66;1724890;83;21204;-78
2021/06/25 07:33:49;;;;;;;5.42;2.87;;;;;;;43.25;48.84;139785.80;1724137;83;21346;-77
2021/06/25 07:36:21;;;;;;;7.78;2.95;;;;;;;43.26;48.70;140514.39;1695389;83;21237;-77
2021/06/25 07:38:54;;;;;;;4.72;2.45;;;;;;;43.27;48.41;142605.61;1695172;84;21265;-78
2021/06/25 07:41:26;;;;;;;7.75;2.85;;;;;;;43.33;48.24;143685.45;1695184;84;21234;-78
2021/06/25 07:43:58;;;;;;;4.17;2.40;;;;;;;43.38;48.07;144725.25;1695253;84;21217;-78
2021/06/25 07:46:31;;;;;;;8.13;2.87;;;;;;;43.49;47.85;146080.50;1695362;84;21724;-77
2021/06/25 07:49:03;;;;;;;8.53;2.50;;;;;;;43.53;47.75;146488.31;1695146;84;21293;-78
2021/06/25 07:51:36;;;;;;;5.37;2.80;;;;;;;43.56;47.77;146136.81;1695230;84;21248;-78
2021/06/25 07:54:09;;;;;;;3.17;2.40;;;;;;;43.60;47.77;146118.50;1695138;84;21263;-77
2021/06/25 07:56:41;;;;;;;4.35;3.08;;;;;;;43.74;47.60;147076.66;1695529;84;21704;-78
2021/06/25 07:59:14;;;;;;;3.75;2.37;;;;;;;43.78;47.52;147354.80;1688331;83;21325;-77
2021/06/25 08:01:46;;;;;;;5.53;3.08;;;;;;;43.86;47.41;147973.09;1724880;83;21401;-78
2021/06/25 08:04:19;;;;;;;3.60;2.47;;;;;;;43.89;47.42;147701.48;1725033;83;21217;-78
2021/06/25 08:06:52;;;;;;;5.17;2.58;;;;;;;43.92;47.38;147677.87;1725132;83;21711;-77
2021/06/25 08:09:24;;;;;;;5.72;2.45;;;;;;;43.92;47.46;146992.88;1725198;83;21382;-77
2021/06/25 08:11:57;;;;;;;6.58;3.10;;;;;;;43.91;47.44;147105.81;1724803;83;21263;-77
2021/06/25 08:14:30;;;;;;;6.70;3.20;;;;;;;43.99;47.29;148070.66;1725024;83;21275;-78
2021/06/25 08:17:03;;;;;;;6.05;2.83;;;;;;;44.08;47.18;148525.22;1724951;83;21393;-77
2021/06/25 08:19:36;;;;;;;9.53;2.87;;;;;;;44.11;47.11;148856.80;1724980;83;21848;-77
2021/06/25 08:22:09;;;;;;;2.80;2.27;;;;;;;44.16;47.09;148904.19;1725147;83;21290;-77
2021/06/25 08:24:42;;;;;;;6.58;3.35;;;;;;;44.24;47.01;149226.48;1724345;83;21345;-77
2021/06/25 08:27:14;;;;;;;6.35;2.62;;;;;;;44.37;46.86;150079.31;1696188;84;21389;-77
2021/06/25 08:29:47;;;;;;;6.17;2.62;;;;;;;44.47;46.76;150574.94;1695963;83;21348;-78
2021/06/25 08:32:19;;;;;;;4.15;2.37;;;;;;;44.52;46.71;150512.77;1729589;82;21904;-77
2021/06/25 08:34:51;;;;;;;4.30;2.40;;;;;;;44.61;46.63;150956.86;1727313;82;21341;-78
2021/06/25 08:37:24;;;;;;;3.80;2.40;;;;;;;44.67;46.60;151122.61;1736255;82;21865;-77
2021/06/25 08:39:57;;;;;;;5.75;2.17;;;;;;;44.73;46.18;153577.19;1750527;80;21259;-77
2021/06/25 08:42:31;;;;;;;6.08;2.30;;;;;;;44.79;45.87;155128.22;1750717;82;21227;-77
2021/06/25 08:45:04;;;;;;;4.12;2.33;;;;;;;44.82;45.83;155181.50;1750754;82;21413;-78
2021/06/25 08:47:50;;;;;;;5.87;2.40;;;;;;;44.82;45.83;154984.88;1750774;80;21374;-78
2021/06/25 08:50:25;;;;;;;6.03;2.35;;;;;;;44.86;45.64;155918.53;1750569;82;21212;-77
2021/06/25 08:52:59;;;;;;;6.22;2.60;;;;;;;44.90;45.51;156437.91;1729033;82;21360;-77
2021/06/25 08:55:31;;;;;;;2.80;2.00;;;;;;;44.95;45.27;157653.66;1695404;84;21260;-77
2021/06/25 08:58:05;;;;;;;3.72;1.90;;;;;;;45.00;45.05;158460.56;1695306;84;21225;-77
2021/06/25 09:00:37;;;;;;;6.35;1.90;;;;;;;45.12;44.66;160130.36;1695437;84;21248;-78
2021/06/25 09:03:21;;;;;;;4.53;2.02;;;;;;;45.23;44.38;160930.81;1695407;84;21760;-77
2021/06/25 09:05:55;;;;;;;7.22;2.70;;;;;;;45.27;44.28;161129.47;1700171;83;21738;-77
2021/06/25 09:08:30;;;;;;;3.87;2.55;;;;;;;45.39;44.09;161640.53;1725119;83;21896;-77
2021/06/25 09:11:03;;;;;;;2.77;1.80;;;;;;;45.44;43.95;161924.19;1725201;83;21342;-77
2021/06/25 09:13:40;;;;;;;4.08;1.95;;;;;;;45.55;43.65;162603.50;1693189;83;21200;-77
2021/06/25 09:16:34;;;;;;;7.87;2.40;;;;;;;45.69;43.34;163170.78;1724972;83;21429;-77
2021/06/25 09:19:16;;;;;;;4.55;2.42;;;;;;;45.50;43.41;162981.39;1725203;83;21346;-77
2021/06/25 09:22:03;;;;;;;2.87;2.00;;;;;;;45.56;43.15;163246.11;1725010;83;21239;-77
2021/06/25 09:24:36;;;;;;;4.65;2.10;;;;;;;45.65;42.83;163270.31;1724792;83;21347;-77
2021/06/25 09:27:09;;;;;;;3.58;2.20;;;;;;;45.83;42.42;163318.86;1725116;83;21428;-78
2021/06/25 09:29:42;;;;;;;3.85;2.20;;;;;;;45.89;42.22;163337.69;1724789;83;21396;-79
2021/06/25 09:32:14;;;;;;;3.87;2.22;;;;;;;45.94;42.16;163351.16;1669568;83;21341;-77
2021/06/25 09:34:50;;;;;;;3.58;2.20;;;;;;;45.93;42.24;163347.09;1724839;83;21199;-77
2021/06/25 09:37:23;;;;;;;5.20;2.17;;;;;;;46.03;42.14;163374.00;1695570;83;21708;-78
2021/06/25 09:40:03;;;;;;;6.05;2.37;;;;;;;46.14;41.95;163403.67;1695523;84;21367;-78
2021/06/25 09:42:39;;;;;;;4.35;2.05;;;;;;;46.20;41.70;163421.17;1695097;84;21760;-77
2021/06/25 09:45:17;;;;;;;3.92;2.33;;;;;;;46.31;41.52;163450.80;1695359;84;21773;-78
2021/06/25 09:47:56;;;;;;;5.80;2.10;;;;;;;46.31;41.49;163450.80;1695310;84;21324;-77
2021/06/25 09:50:33;;;;;;;5.35;2.47;;;;;;;46.38;41.36;163469.67;1695461;84;21222;-77
2021/06/25 09:53:07;;;;;;;4.75;1.80;;;;;;;46.52;41.08;163507.44;1695450;83;21253;-78
2021/06/25 09:55:58;;;;;;;4.65;2.62;;;;;;;46.59;40.79;163524.95;1695187;84;21229;-77
2021/06/25 10:01:24;;;;;;;8.23;2.17;;;;;;;46.73;40.52;163562.61;1695261;84;21209;-77
2021/06/25 10:04:02;;;;;;;3.20;2.20;;;;;;;46.84;40.38;163594.98;1695317;84;21248;-78
2021/06/25 10:06:35;;;;;;;2.37;1.90;;;;;;;46.96;40.16;163626.00;1697102;83;21201;-77
2021/06/25 10:09:08;;;;;;;4.50;2.40;;;;;;;47.00;40.09;163636.73;1695187;84;21688;-77
2021/06/25 10:11:40;;;;;;;5.50;1.90;;;;;;;47.04;40.09;163648.91;1695268;84;21225;-79
2021/06/25 10:14:14;;;;;;;5.22;2.50;;;;;;;47.10;40.06;163663.72;1695119;83;21261;-77
2021/06/25 10:16:50;;;;;;;4.83;2.37;;;;;;;47.13;40.03;163673.14;1695379;84;21238;-77
2021/06/25 10:19:23;;;;;;;5.95;2.33;;;;;;;47.13;40.12;163671.75;1695267;84;21218;-78
2021/06/25 10:21:55;;;;;;;4.17;1.87;;;;;;;47.17;40.11;163683.94;1695947;84;21202;-77
2021/06/25 10:24:28;;;;;;;4.87;2.17;;;;;;;47.21;40.12;163694.72;1695922;83;21870;-78
2021/06/25 10:27:04;;;;;;;4.00;2.02;;;;;;;47.24;40.08;163702.81;1720784;82;21235;-78
2021/06/25 10:29:36;;;;;;;3.47;2.00;;;;;;;47.35;39.92;163731.08;1720824;83;21410;-78
2021/06/25 10:32:09;;;;;;;3.72;2.10;;;;;;;47.42;39.81;163751.30;1720935;83;21829;-78
2021/06/25 10:34:43;;;;;;;3.98;2.20;;;;;;;47.48;39.77;163766.11;1720981;82;21859;-77
2021/06/25 10:37:24;;;;;;;3.37;2.60;;;;;;;47.49;39.78;163768.81;1719440;82;21407;-77
2021/06/25 10:39:57;;;;;;;5.92;1.95;;;;;;;47.56;39.73;163789.08;1687284;83;21372;-77
2021/06/25 10:42:41;;;;;;;4.45;2.27;;;;;;;47.62;39.67;163803.91;1715220;83;21375;-78
2021/06/25 10:45:14;;;;;;;4.50;2.47;;;;;;;47.70;39.62;163825.44;1685208;83;21887;-77
2021/06/25 10:48:00;;;;;;;5.97;2.70;;;;;;;47.78;39.56;163849.73;1715304;83;22208;-77
2021/06/25 10:50:29;;;;;;;4.83;2.08;;;;;;;47.77;39.61;163845.66;1687518;85;21388;-77
2021/06/25 10:53:19;;;;;;;4.30;2.37;;;;;;;47.78;39.64;163847.03;1715062;83;21214;-78
2021/06/25 10:56:03;;;;;;;4.47;2.45;;;;;;;47.82;39.54;163860.48;1695488;84;21752;-77
2021/06/25 10:58:36;;;;;;;4.45;2.20;;;;;;;47.85;39.55;163867.25;1695147;84;21272;-78
2021/06/25 11:01:08;;;;;;;6.35;2.58;;;;;;;47.89;39.51;163878.05;1695449;84;21208;-78
2021/06/25 11:03:45;;;;;;;3.00;2.30;;;;;;;47.96;39.44;163896.94;1695274;84;21217;-77
2021/06/25 11:06:43;;;;;;;6.08;2.65;;;;;;;47.94;39.51;163892.87;1697899;83;21205;-78
2021/06/25 11:09:17;;;;;;;3.17;2.08;;;;;;;48.01;39.46;163910.39;1696035;82;21210;-78
2021/06/25 11:11:50;;;;;;;2.80;2.55;;;;;;;48.00;39.46;163909.06;1695138;84;21217;-78
2021/06/25 11:14:27;;;;;;;3.40;2.67;;;;;;;48.01;39.49;163910.39;1695218;84;21319;-78
2021/06/25 11:16:59;;;;;;;4.28;2.80;;;;;;;48.10;39.41;163934.64;1663838;85;21245;-78
2021/06/25 11:19:37;;;;;;;3.30;2.55;;;;;;;48.13;39.41;163942.75;1691054;85;21292;-78
2021/06/25 11:22:39;;;;;;;3.00;2.40;;;;;;;47.42;40.23;163751.30;1691030;85;21214;-78
2021/06/25 11:25:15;;;;;;;3.50;2.20;;;;;;;47.10;40.88;163665.03;1691153;85;21252;-78
2021/06/25 11:28:27;;;;;;;3.27;2.25;;;;;;;47.14;40.85;163675.83;1664150;85;21186;-78
2021/06/25 11:31:16;;;;;;;4.40;2.12;;;;;;;47.17;40.76;163682.61;1691238;85;21245;-77
2021/06/25 11:33:54;;;;;;;4.40;2.50;;;;;;;47.93;39.78;163888.84;1691009;85;21217;-78
2021/06/25 11:36:52;;;;;;;5.17;2.50;;;;;;;47.92;39.70;163887.47;1705532;83;21742;-78
2021/06/25 11:39:35;;;;;;;3.77;2.50;;;;;;;47.94;39.65;163892.87;1725466;83;21405;-78
2021/06/25 11:42:19;;;;;;;3.37;2.67;;;;;;;47.94;39.65;163891.55;1725530;83;21389;-77
2021/06/25 11:44:51;;;;;;;3.25;2.33;;;;;;;47.96;39.58;163896.94;1725667;83;21794;-77
2021/06/25 11:47:31;;;;;;;5.87;2.70;;;;;;;48.12;39.37;163941.42;1725543;83;21223;-78
2021/06/25 11:50:05;;;;;;;3.67;2.42;;;;;;;47.95;39.59;163894.25;1725392;83;21338;-78
2021/06/25 11:52:46;;;;;;;7.58;2.30;;;;;;;47.85;39.81;163867.25;1725373;83;21191;-78
2021/06/25 11:55:14;;;;;;;4.22;2.90;;;;;;;47.15;40.74;163678.53;1713347;83;21965;-78
2021/06/25 11:57:47;;;;;;;3.35;2.35;;;;;;;46.98;41.17;163632.72;1696745;83;21333;-78
2021/06/25 12:00:21;;;;;;;5.40;2.77;;;;;;;47.87;40.08;163874.03;1665478;86;21750;-78
2021/06/25 12:02:55;;;;;;;5.50;2.72;;;;;;;48.09;39.71;163932.00;1663377;86;21238;-77
2021/06/25 12:05:34;;;;;;;3.37;2.33;;;;;;;48.18;39.61;163956.23;1671285;85;21782;-78
2021/06/25 12:08:16;;;;;;;3.85;2.70;;;;;;;48.11;39.69;163938.72;1691139;83;21184;-78
2021/06/25 12:11:00;;;;;;;4.22;2.45;;;;;;;47.77;39.96;163844.33;1707051;84;21188;-78
2021/06/25 12:13:33;;;;;;;3.60;2.40;;;;;;;47.02;41.49;163643.50;1707247;83;21378;-77